createdAt,value
2023-10-30T00:00:09.464Z,14.82
2023-10-30T00:02:44.995Z,14.78
2023-10-30T00:05:17.220Z,14.80
2023-10-30T00:07:55.465Z,14.90
2023-10-30T00:10:27.935Z,14.91
2023-10-30T00:13:07.956Z,14.92
2023-10-30T00:15:40.103Z,14.96
2023-10-30T00:18:18.277Z,15.03
2023-10-30T00:20:52.980Z,14.86
2023-10-30T00:23:28.105Z,14.87
2023-10-30T00:26:03.542Z,14.88
2023-10-30T00:28:41.218Z,14.84
2023-10-30T00:31:12.877Z,14.76
2023-10-30T00:33:54.481Z,14.69
2023-10-30T00:36:32.738Z,14.66
2023-10-30T00:39:12.976Z,14.68
2023-10-30T00:41:48.943Z,14.67
2023-10-30T00:44:26.646Z,14.68
2023-10-30T00:47:00.399Z,14.59
2023-10-30T00:49:33.156Z,14.54
2023-10-30T00:52:05.364Z,14.56
2023-10-30T00:54:37.480Z,14.56
2023-10-30T00:57:07.102Z,14.50
2023-10-30T00:59:48.573Z,14.41
2023-10-30T01:02:25.265Z,14.32
2023-10-30T01:05:01.496Z,14.15
2023-10-30T01:07:37.015Z,13.96
2023-10-30T01:10:10.398Z,13.87
2023-10-30T01:12:53.861Z,13.81
2023-10-30T01:15:31.495Z,13.83
2023-10-30T01:18:04.380Z,13.79
2023-10-30T01:20:46.125Z,13.63
2023-10-30T01:23:23.097Z,13.73
2023-10-30T01:26:01.860Z,13.77
2023-10-30T01:28:42.957Z,13.59
2023-10-30T01:31:26.041Z,13.60
2023-10-30T01:33:58.847Z,13.61
2023-10-30T01:36:34.061Z,13.63
2023-10-30T01:39:09.308Z,13.71
2023-10-30T01:41:44.040Z,13.76
2023-10-30T01:44:19.154Z,13.81
2023-10-30T01:46:59.979Z,13.75
2023-10-30T01:49:34.611Z,13.63
2023-10-30T01:52:12.553Z,13.65
2023-10-30T01:54:48.271Z,13.80
2023-10-30T01:57:27.280Z,13.75
2023-10-30T02:00:04.733Z,13.72
2023-10-30T02:02:45.772Z,13.65
2023-10-30T02:07:59.159Z,13.56
2023-10-30T02:10:34.642Z,13.60
2023-10-30T02:13:13.926Z,13.71
2023-10-30T02:15:54.589Z,13.74
2023-10-30T02:18:31.889Z,13.80
2023-10-30T02:21:07.875Z,13.75
2023-10-30T02:23:40.380Z,13.78
2023-10-30T02:26:18.687Z,13.54
2023-10-30T02:28:53.574Z,13.44
2023-10-30T02:31:31.660Z,13.48
2023-10-30T02:34:12.468Z,13.32
2023-10-30T02:36:42.704Z,13.45
2023-10-30T02:39:20.521Z,13.37
2023-10-30T02:41:58.506Z,13.38
2023-10-30T02:44:31.312Z,13.30
2023-10-30T02:47:05.893Z,13.34
2023-10-30T02:49:40.049Z,13.39
2023-10-30T02:52:12.859Z,13.40
2023-10-30T02:54:53.965Z,13.23
2023-10-30T02:57:29.139Z,13.19
2023-10-30T03:00:04.755Z,13.18
2023-10-30T03:02:37.192Z,13.14
2023-10-30T03:05:10.651Z,13.20
2023-10-30T03:07:46.375Z,13.13
2023-10-30T03:10:20.301Z,13.10
2023-10-30T03:12:58.941Z,13.12
2023-10-30T03:15:33.469Z,13.11
2023-10-30T03:18:16.716Z,13.18
2023-10-30T03:20:56.564Z,13.21
2023-10-30T03:23:37.059Z,13.28
2023-10-30T03:26:14.668Z,13.31
2023-10-30T03:28:53.934Z,13.24
2023-10-30T03:31:34.743Z,13.19
2023-10-30T03:34:08.158Z,13.40
2023-10-30T03:36:45.903Z,13.41
2023-10-30T03:39:20.686Z,13.46
2023-10-30T03:41:56.180Z,13.44
2023-10-30T03:44:29.167Z,13.51
2023-10-30T03:47:04.879Z,13.53
2023-10-30T03:49:40.234Z,13.61
2023-10-30T03:52:20.235Z,13.61
2023-10-30T03:54:56.330Z,13.60
2023-10-30T03:57:33.521Z,13.55
2023-10-30T04:00:08.507Z,13.48
2023-10-30T04:02:46.028Z,13.57
2023-10-30T04:05:26.954Z,13.54
2023-10-30T04:08:08.903Z,13.49
2023-10-30T04:10:38.958Z,13.61
2023-10-30T04:13:14.186Z,13.73
2023-10-30T04:15:53.949Z,13.68
2023-10-30T04:18:29.154Z,13.78
2023-10-30T04:21:07.904Z,13.82
2023-10-30T04:23:43.622Z,13.87
2023-10-30T04:26:21.244Z,13.95
2023-10-30T04:28:54.139Z,13.98
2023-10-30T04:31:29.167Z,14.06
2023-10-30T04:34:01.908Z,14.05
2023-10-30T04:36:39.705Z,14.16
2023-10-30T04:39:18.020Z,14.11
2023-10-30T04:41:55.916Z,14.07
2023-10-30T04:44:32.384Z,14.01
2023-10-30T04:47:16.085Z,13.90
2023-10-30T04:49:51.421Z,13.94
2023-10-30T04:52:25.934Z,13.84
2023-10-30T04:55:01.389Z,13.75
2023-10-30T04:57:42.020Z,13.78
2023-10-30T05:00:16.010Z,13.73
2023-10-30T05:02:51.155Z,13.70
2023-10-30T05:05:29.500Z,13.68
2023-10-30T05:08:07.393Z,13.68
2023-10-30T05:10:42.843Z,13.56
2023-10-30T05:13:21.412Z,13.66
2023-10-30T05:15:53.943Z,13.55
2023-10-30T05:18:31.392Z,13.64
2023-10-30T05:21:09.817Z,13.61
2023-10-30T05:23:42.090Z,13.58
2023-10-30T05:26:20.303Z,13.83
2023-10-30T05:29:03.210Z,13.99
2023-10-30T05:31:38.298Z,14.01
2023-10-30T05:34:15.829Z,14.00
2023-10-30T05:36:49.116Z,14.08
2023-10-30T05:39:23.855Z,14.08
2023-10-30T05:42:04.046Z,13.90
2023-10-30T05:44:44.963Z,13.93
2023-10-30T05:47:14.751Z,13.86
2023-10-30T05:49:50.285Z,13.92
2023-10-30T05:52:37.267Z,14.03
2023-10-30T05:55:18.525Z,13.92
2023-10-30T05:57:58.926Z,13.97
2023-10-30T06:00:34.534Z,14.03
2023-10-30T06:03:15.364Z,14.09
2023-10-30T06:05:53.726Z,14.22
2023-10-30T06:08:37.978Z,14.08
2023-10-30T06:11:14.029Z,14.15
2023-10-30T06:13:51.741Z,14.22
2023-10-30T06:16:29.939Z,14.12
2023-10-30T06:19:06.449Z,14.19
2023-10-30T06:21:44.776Z,14.25
2023-10-30T06:24:22.577Z,14.46
2023-10-30T06:26:57.207Z,14.65
2023-10-30T06:29:32.533Z,14.84
2023-10-30T06:32:04.981Z,14.87
2023-10-30T06:34:42.303Z,15.01
2023-10-30T06:37:17.599Z,15.13
2023-10-30T06:39:50.554Z,15.26
2023-10-30T06:42:25.218Z,15.48
2023-10-30T06:45:08.050Z,15.66
2023-10-30T06:47:40.623Z,15.68
2023-10-30T06:50:14.925Z,15.80
2023-10-30T06:52:56.165Z,15.80
2023-10-30T06:55:35.697Z,15.82
2023-10-30T06:58:18.080Z,15.92
2023-10-30T07:01:01.933Z,15.95
2023-10-30T07:03:37.824Z,16.02
2023-10-30T07:06:14.780Z,16.06
2023-10-30T07:08:50.500Z,16.17
2023-10-30T07:11:20.513Z,16.27
2023-10-30T07:13:55.819Z,16.21
2023-10-30T07:16:27.481Z,16.26
2023-10-30T07:19:04.093Z,16.42
2023-10-30T07:21:41.961Z,16.58
2023-10-30T07:24:19.347Z,16.76
2023-10-30T07:26:54.555Z,16.83
2023-10-30T07:29:23.937Z,16.87
2023-10-30T07:32:01.988Z,16.93
2023-10-30T07:34:42.101Z,16.85
2023-10-30T07:37:13.870Z,16.88
2023-10-30T07:39:51.535Z,17.03
2023-10-30T07:42:23.808Z,17.31
2023-10-30T07:44:56.711Z,17.54
2023-10-30T07:47:43.171Z,17.78
2023-10-30T07:50:19.292Z,18.06
2023-10-30T07:52:52.478Z,18.20
2023-10-30T07:55:22.931Z,18.21
2023-10-30T07:57:57.291Z,18.51
2023-10-30T08:00:32.666Z,18.57
2023-10-30T08:03:09.304Z,18.73
2023-10-30T08:05:44.447Z,18.89
2023-10-30T08:08:20.447Z,18.91
2023-10-30T08:10:55.363Z,18.99
2023-10-30T08:13:30.142Z,19.01
2023-10-30T08:16:03.222Z,19.22
2023-10-30T08:18:43.058Z,19.38
2023-10-30T08:21:21.000Z,19.70
2023-10-30T08:23:56.334Z,19.75
2023-10-30T08:26:29.636Z,20.04
2023-10-30T08:29:00.082Z,20.12
2023-10-30T08:31:39.989Z,20.22
2023-10-30T08:34:13.941Z,20.56
2023-10-30T08:36:46.608Z,20.79
2023-10-30T08:39:18.976Z,21.00
2023-10-30T08:41:54.737Z,21.17
2023-10-30T08:44:32.366Z,21.16
2023-10-30T08:47:10.688Z,21.28
2023-10-30T08:49:45.410Z,21.42
2023-10-30T08:52:17.708Z,21.43
2023-10-30T08:54:50.868Z,21.29
2023-10-30T08:57:20.861Z,21.33
2023-10-30T08:59:50.842Z,20.91
2023-10-30T09:02:30.148Z,20.76
2023-10-30T09:05:02.690Z,20.85
2023-10-30T09:07:32.936Z,21.08
2023-10-30T09:10:04.548Z,21.33
2023-10-30T09:12:34.291Z,21.51
2023-10-30T09:15:03.818Z,21.83
2023-10-30T09:17:38.723Z,21.85
2023-10-30T09:20:13.406Z,21.65
2023-10-30T09:22:40.505Z,21.69
2023-10-30T09:25:13.104Z,21.67
2023-10-30T09:27:48.582Z,21.71
2023-10-30T09:30:21.040Z,21.73
2023-10-30T09:32:51.354Z,21.88
2023-10-30T09:35:27.595Z,21.84
2023-10-30T09:38:03.586Z,21.91
2023-10-30T09:40:38.228Z,21.75
2023-10-30T09:43:15.761Z,21.81
2023-10-30T09:45:53.979Z,21.83
2023-10-30T09:48:29.892Z,21.70
2023-10-30T09:51:04.732Z,21.77
2023-10-30T09:53:39.005Z,21.51
2023-10-30T09:56:14.652Z,21.52
2023-10-30T09:58:50.866Z,21.35
2023-10-30T10:01:26.252Z,21.28
2023-10-30T10:04:01.043Z,21.08
2023-10-30T10:06:31.125Z,21.01
2023-10-30T10:09:08.351Z,21.00
2023-10-30T10:11:44.453Z,21.20
2023-10-30T10:14:18.015Z,21.20
2023-10-30T10:16:57.772Z,21.12
2023-10-30T10:19:37.473Z,21.38
2023-10-30T10:22:09.405Z,21.42
2023-10-30T10:24:49.826Z,21.55
2023-10-30T10:27:22.974Z,21.53
2023-10-30T10:29:57.178Z,21.57
2023-10-30T10:32:28.010Z,21.68
2023-10-30T10:35:06.738Z,21.75
2023-10-30T10:37:36.248Z,21.87
2023-10-30T10:40:25.946Z,22.00
2023-10-30T10:43:03.614Z,22.03
2023-10-30T10:45:33.807Z,22.14
2023-10-30T10:48:07.717Z,22.12
2023-10-30T10:50:42.496Z,22.38
2023-10-30T10:53:13.076Z,22.33
2023-10-30T10:55:51.126Z,22.33
2023-10-30T10:58:27.927Z,22.29
2023-10-30T11:01:03.977Z,22.24
2023-10-30T11:03:38.911Z,22.19
2023-10-30T11:06:20.181Z,22.14
2023-10-30T11:09:19.044Z,22.27
2023-10-30T11:11:54.864Z,22.34
2023-10-30T11:14:39.874Z,22.42
2023-10-30T11:17:14.937Z,22.44
2023-10-30T11:19:49.008Z,22.48
2023-10-30T11:22:40.740Z,22.23
2023-10-30T11:25:37.303Z,22.07
2023-10-30T11:28:09.919Z,22.11
2023-10-30T11:30:46.416Z,22.06
2023-10-30T11:33:21.080Z,22.09
2023-10-30T11:36:17.222Z,22.11
2023-10-30T11:38:54.502Z,22.37
2023-10-30T11:41:40.083Z,22.56
2023-10-30T11:44:13.873Z,22.56
2023-10-30T11:46:55.685Z,22.57
2023-10-30T11:49:35.861Z,22.53
2023-10-30T11:52:13.574Z,22.66
2023-10-30T11:54:47.841Z,22.59
2023-10-30T11:57:26.640Z,22.51
2023-10-30T12:00:04.037Z,22.61
2023-10-30T12:02:45.869Z,22.54
2023-10-30T12:05:13.050Z,22.61
2023-10-30T12:07:40.189Z,22.66
2023-10-30T12:10:10.387Z,22.79
2023-10-30T12:12:45.354Z,22.88
2023-10-30T12:15:20.552Z,22.90
2023-10-30T12:17:56.882Z,23.00
2023-10-30T12:20:29.170Z,23.09
2023-10-30T12:23:03.884Z,23.19
2023-10-30T12:25:38.675Z,23.14
2023-10-30T12:28:16.129Z,23.14
2023-10-30T12:30:49.400Z,23.04
2023-10-30T12:33:25.362Z,23.07
2023-10-30T12:35:58.478Z,23.07
2023-10-30T12:38:36.412Z,23.02
2023-10-30T12:41:11.744Z,23.06
2023-10-30T12:43:42.217Z,23.09
2023-10-30T12:46:17.410Z,23.06
2023-10-30T12:48:49.975Z,23.13
2023-10-30T12:51:22.923Z,22.81
2023-10-30T12:53:55.233Z,22.83
2023-10-30T12:56:26.856Z,22.76
2023-10-30T12:58:59.883Z,22.85
2023-10-30T13:01:30.149Z,22.70
2023-10-30T13:04:09.904Z,22.85
2023-10-30T13:06:44.315Z,22.92
2023-10-30T13:09:16.488Z,23.05
2023-10-30T13:12:00.238Z,22.92
2023-10-30T13:14:32.905Z,22.96
2023-10-30T13:17:03.062Z,22.97
2023-10-30T13:19:40.218Z,22.92
2023-10-30T13:22:15.485Z,22.98
2023-10-30T13:24:50.727Z,23.02
2023-10-30T13:27:20.213Z,22.87
2023-10-30T13:29:56.963Z,22.93
2023-10-30T13:32:31.669Z,22.78
2023-10-30T13:35:04.764Z,22.80
2023-10-30T13:37:38.081Z,22.73
2023-10-30T13:40:13.262Z,22.72
2023-10-30T13:42:46.025Z,22.58
2023-10-30T13:45:18.060Z,22.66
2023-10-30T13:47:51.037Z,22.47
2023-10-30T13:50:20.509Z,22.46
2023-10-30T13:52:52.584Z,22.33
2023-10-30T13:55:27.411Z,22.18
2023-10-30T13:57:57.267Z,22.07
2023-10-30T14:00:32.232Z,21.94
2023-10-30T14:03:03.673Z,21.83
2023-10-30T14:05:32.968Z,21.74
2023-10-30T14:08:05.921Z,21.69
2023-10-30T14:10:38.035Z,21.60
2023-10-30T14:13:07.810Z,21.45
2023-10-30T14:15:36.978Z,21.56
2023-10-30T14:18:11.755Z,21.38
2023-10-30T14:20:46.478Z,21.38
2023-10-30T14:23:21.651Z,21.26
2023-10-30T14:25:54.621Z,21.13
2023-10-30T14:28:26.901Z,21.15
2023-10-30T14:30:59.613Z,21.13
2023-10-30T14:33:35.926Z,21.22
2023-10-30T14:36:11.888Z,21.20
2023-10-30T14:38:44.209Z,21.22
2023-10-30T14:41:29.120Z,21.04
2023-10-30T14:44:07.274Z,20.90
2023-10-30T14:46:45.622Z,20.78
2023-10-30T14:49:12.820Z,20.71
2023-10-30T14:51:45.574Z,20.53
2023-10-30T14:54:20.875Z,20.54
2023-10-30T14:56:55.650Z,20.49
2023-10-30T14:59:27.899Z,20.43
2023-10-30T15:01:57.818Z,20.30
2023-10-30T15:04:38.603Z,20.15
2023-10-30T15:07:08.791Z,20.02
2023-10-30T15:09:46.501Z,19.94
2023-10-30T15:12:21.907Z,19.76
2023-10-30T15:15:02.539Z,19.60
2023-10-30T15:17:35.138Z,19.55
2023-10-30T15:20:12.234Z,19.52
2023-10-30T15:22:50.379Z,19.40
2023-10-30T15:25:32.670Z,19.26
2023-10-30T15:28:04.970Z,19.23
2023-10-30T15:30:46.003Z,19.20
2023-10-30T15:33:21.783Z,19.16
2023-10-30T15:35:57.898Z,19.18
2023-10-30T15:38:33.074Z,18.91
2023-10-30T15:41:08.674Z,18.85
2023-10-30T15:43:45.948Z,18.80
2023-10-30T15:46:20.418Z,18.74
2023-10-30T15:48:57.784Z,18.73
2023-10-30T15:51:35.619Z,18.66
2023-10-30T15:59:25.043Z,18.71
2023-10-30T16:02:03.278Z,18.71
2023-10-30T16:05:01.360Z,18.47
2023-10-30T16:07:40.568Z,18.46
2023-10-30T16:12:59.332Z,18.42
2023-10-30T16:15:31.653Z,18.42
2023-10-30T16:18:21.498Z,18.39
2023-10-30T16:21:16.376Z,18.41
2023-10-30T16:24:01.233Z,18.35
2023-10-30T16:26:30.582Z,18.30
2023-10-30T16:29:10.639Z,18.24
2023-10-30T16:31:43.137Z,18.25
2023-10-30T16:36:53.756Z,18.08
2023-10-30T16:39:31.222Z,17.96
2023-10-30T16:42:07.559Z,17.74
2023-10-30T16:44:40.226Z,17.48
2023-10-30T16:47:18.557Z,17.47
2023-10-30T16:49:55.845Z,17.37
2023-10-30T16:52:30.635Z,17.32
2023-10-30T16:55:09.017Z,17.36
2023-10-30T16:57:45.528Z,17.36
2023-10-30T17:00:16.774Z,17.30
2023-10-30T17:03:01.246Z,17.38
2023-10-30T17:05:39.525Z,17.33
2023-10-30T17:08:17.740Z,17.52
2023-10-30T17:11:18.739Z,17.45
2023-10-30T17:14:00.564Z,17.39
2023-10-30T17:16:35.743Z,17.35
2023-10-30T17:19:09.678Z,17.42
2023-10-30T17:21:45.068Z,17.41
2023-10-30T17:24:16.914Z,17.35
2023-10-30T17:26:57.771Z,17.26
2023-10-30T17:29:36.016Z,17.30
2023-10-30T17:32:14.087Z,17.18
2023-10-30T17:34:53.441Z,17.06
2023-10-30T17:37:27.954Z,16.76
2023-10-30T17:40:01.098Z,16.69
2023-10-30T17:42:39.788Z,16.70
2023-10-30T17:45:20.692Z,16.51
2023-10-30T17:47:50.872Z,16.47
2023-10-30T17:50:30.907Z,16.36
2023-10-30T17:53:12.087Z,16.27
2023-10-30T17:55:43.212Z,16.01
2023-10-30T17:58:18.286Z,15.95
2023-10-30T18:00:56.113Z,15.92
2023-10-30T18:03:34.745Z,15.83
2023-10-30T18:06:16.064Z,15.92
2023-10-30T18:08:51.385Z,15.86
2023-10-30T18:11:24.139Z,15.94
2023-10-30T18:13:56.109Z,15.99
2023-10-30T18:16:41.500Z,15.80
2023-10-30T18:19:24.915Z,15.78
2023-10-30T18:22:03.221Z,15.72
2023-10-30T18:24:41.926Z,15.54
2023-10-30T18:27:22.823Z,15.33
2023-10-30T18:30:01.933Z,15.29
2023-10-30T18:32:57.206Z,15.33
2023-10-30T18:35:38.013Z,15.44
2023-10-30T18:38:15.757Z,15.43
2023-10-30T18:40:50.638Z,15.50
2023-10-30T18:43:26.179Z,15.43
2023-10-30T18:46:09.423Z,15.43
2023-10-30T18:48:50.989Z,15.38
2023-10-30T18:51:27.322Z,15.48
2023-10-30T18:54:07.914Z,15.58
2023-10-30T18:56:41.081Z,15.70
2023-10-30T18:59:24.947Z,15.76
2023-10-30T19:02:00.358Z,15.88
2023-10-30T19:04:43.327Z,15.80
2023-10-30T19:07:27.106Z,15.84
2023-10-30T19:10:07.643Z,15.80
2023-10-30T19:12:42.746Z,15.67
2023-10-30T19:15:22.119Z,15.48
2023-10-30T19:17:55.032Z,15.36
2023-10-30T19:20:27.618Z,15.36
2023-10-30T19:23:07.696Z,15.37
2023-10-30T19:25:46.781Z,15.40
2023-10-30T19:28:16.837Z,15.20
2023-10-30T19:30:54.665Z,15.16
2023-10-30T19:33:31.732Z,15.23
2023-10-30T19:36:12.027Z,15.46
2023-10-30T19:39:02.031Z,15.48
2023-10-30T19:41:44.489Z,15.60
2023-10-30T19:44:22.494Z,15.69
2023-10-30T19:46:54.948Z,15.72
2023-10-30T19:49:36.475Z,15.94
2023-10-30T19:52:12.500Z,15.98
2023-10-30T19:55:04.775Z,15.91
2023-10-30T19:57:49.618Z,15.75
2023-10-30T20:00:27.077Z,15.51
2023-10-30T20:03:05.068Z,15.49
2023-10-30T20:05:45.412Z,15.55
2023-10-30T20:08:18.027Z,15.48
2023-10-30T20:10:52.880Z,15.45
2023-10-30T20:13:32.985Z,15.27
2023-10-30T20:16:11.275Z,15.24
2023-10-30T20:18:47.934Z,15.07
2023-10-30T20:21:32.878Z,14.94
2023-10-30T20:24:10.292Z,15.20
2023-10-30T20:26:52.173Z,15.33
2023-10-30T20:29:25.191Z,15.41
2023-10-30T20:32:03.988Z,15.47
2023-10-30T20:34:40.866Z,15.54
2023-10-30T20:37:18.522Z,15.59
2023-10-30T20:39:59.734Z,15.50
2023-10-30T20:42:34.836Z,15.52
2023-10-30T20:45:13.944Z,15.41
2023-10-30T20:47:45.995Z,15.32
2023-10-30T20:50:26.075Z,15.08
2023-10-30T20:53:00.751Z,14.97
2023-10-30T20:55:40.610Z,15.05
2023-10-30T20:58:18.016Z,15.21
2023-10-30T21:00:51.433Z,15.24
2023-10-30T21:03:27.937Z,15.37
2023-10-30T21:06:03.380Z,15.48
2023-10-30T21:08:43.613Z,15.52
2023-10-30T21:11:16.360Z,15.47
2023-10-30T21:13:51.735Z,15.34
2023-10-30T21:16:26.890Z,15.27
2023-10-30T21:19:02.311Z,15.15
2023-10-30T21:21:38.015Z,15.33
2023-10-30T21:24:13.307Z,15.32
2023-10-30T21:26:46.793Z,15.33
2023-10-30T21:29:22.241Z,15.37
2023-10-30T21:32:00.898Z,15.30
2023-10-30T21:34:33.961Z,15.38
2023-10-30T21:37:15.168Z,15.52
2023-10-30T21:39:51.167Z,15.47
2023-10-30T21:42:29.345Z,15.39
2023-10-30T21:45:07.933Z,15.41
2023-10-30T21:47:42.564Z,15.27
2023-10-30T21:50:20.196Z,15.24
2023-10-30T21:52:55.943Z,15.15
2023-10-30T21:55:33.454Z,15.28
2023-10-30T21:58:11.735Z,15.21
2023-10-30T22:00:50.973Z,15.02
2023-10-30T22:03:23.203Z,15.27
2023-10-30T22:05:59.956Z,15.08
2023-10-30T22:08:35.639Z,15.16
2023-10-30T22:11:15.975Z,15.08
2023-10-30T22:13:53.760Z,15.11
2023-10-30T22:16:28.770Z,15.16
2023-10-30T22:19:04.063Z,15.12
2023-10-30T22:21:42.365Z,14.98
2023-10-30T22:24:17.808Z,14.86
2023-10-30T22:26:56.534Z,14.82
2023-10-30T22:29:34.179Z,14.73
2023-10-30T22:32:13.326Z,14.70
2023-10-30T22:34:48.527Z,14.80
2023-10-30T22:37:32.389Z,14.67
2023-10-30T22:40:06.855Z,14.56
2023-10-30T22:42:40.382Z,14.62
2023-10-30T22:45:14.948Z,14.69
2023-10-30T22:47:53.087Z,14.69
2023-10-30T22:50:36.426Z,14.83
2023-10-30T22:53:13.764Z,14.70
2023-10-30T22:55:50.042Z,14.72
2023-10-30T22:58:22.301Z,14.76
2023-10-30T23:00:57.031Z,14.73
2023-10-30T23:03:34.775Z,14.77
2023-10-30T23:06:16.264Z,14.65
2023-10-30T23:08:48.684Z,14.59
2023-10-30T23:11:24.108Z,14.52
2023-10-30T23:13:59.121Z,14.51
2023-10-30T23:16:34.571Z,14.52
2023-10-30T23:19:07.244Z,14.47
2023-10-30T23:21:44.905Z,14.42
2023-10-30T23:24:25.556Z,14.43
2023-10-30T23:27:05.814Z,14.24
2023-10-30T23:29:41.315Z,14.21
2023-10-30T23:32:19.646Z,14.26
2023-10-30T23:34:51.965Z,14.18
2023-10-30T23:37:32.726Z,14.12
2023-10-30T23:40:05.468Z,13.97
2023-10-30T23:42:40.712Z,13.91
2023-10-30T23:45:21.304Z,13.95
2023-10-30T23:47:58.962Z,13.85
2023-10-30T23:50:34.720Z,13.80
2023-10-30T23:53:09.926Z,13.91
2023-10-30T23:55:44.509Z,14.02
2023-10-30T23:58:24.832Z,13.99
